Time;durP1;ratioP1;P1;durP2;ratioP2;P2;SDS_P1;SDS_P2;PMS_P1;PMS_P2;Temp;Humidity;BMP_temperature;BMP_pressure;BME280_temperature;BME280_humidity;BME280_pressure;Samples;Min_cycle;Max_cycle;Signal;HPM_P1;HPM_P2
2022/03/06 00:00:08;;;;;;;;;88.33;76.67;;;;;;;;5034920;28;47475;-73
2022/03/06 00:02:33;;;;;;;;;86.00;74.00;;;;;;;;5033871;28;45474;-72
2022/03/06 00:04:59;;;;;;;;;86.33;67.33;;;;;;;;5034322;28;45788;-73
2022/03/06 00:07:24;;;;;;;;;84.00;74.67;;;;;;;;5016180;28;47301;-74
2022/03/06 00:09:49;;;;;;;;;84.00;71.00;;;;;;;;5034278;28;45770;-72
2022/03/06 00:12:14;;;;;;;;;81.00;68.00;;;;;;;;5034618;28;45338;-73
2022/03/06 00:14:39;;;;;;;;;89.00;75.67;;;;;;;;5034118;28;45469;-73
2022/03/06 00:17:05;;;;;;;;;84.67;71.33;;;;;;;;5034061;28;45497;-73
2022/03/06 00:19:30;;;;;;;;;83.33;67.00;;;;;;;;5033902;28;47154;-73
2022/03/06 00:21:55;;;;;;;;;92.00;73.00;;;;;;;;5034198;28;45461;-74
2022/03/06 00:24:20;;;;;;;;;90.00;68.67;;;;;;;;5034440;28;45389;-74
2022/03/06 00:26:46;;;;;;;;;84.00;65.33;;;;;;;;5034998;28;45301;-73
2022/03/06 00:29:11;;;;;;;;;79.33;66.00;;;;;;;;5033760;28;45406;-73
2022/03/06 00:31:37;;;;;;;;;80.67;63.00;;;;;;;;5034103;28;45323;-74
2022/03/06 00:34:02;;;;;;;;;87.00;75.33;;;;;;;;5034550;28;45470;-74
2022/03/06 00:36:28;;;;;;;;;84.67;67.67;;;;;;;;5034336;28;45365;-73
2022/03/06 00:38:53;;;;;;;;;84.67;67.67;;;;;;;;5034810;28;45394;-72
2022/03/06 00:41:18;;;;;;;;;79.67;64.33;;;;;;;;5024579;28;45297;-73
2022/03/06 00:43:44;;;;;;;;;79.67;66.00;;;;;;;;5026615;28;45253;-73
2022/03/06 00:46:09;;;;;;;;;83.00;70.67;;;;;;;;5033929;28;49664;-73
2022/03/06 00:48:34;;;;;;;;;78.00;60.33;;;;;;;;5033887;28;45931;-73
2022/03/06 00:51:01;;;;;;;;;84.67;69.67;;;;;;;;5034203;28;45316;-73
2022/03/06 00:53:26;;;;;;;;;84.00;66.00;;;;;;;;5033762;28;45323;-73
2022/03/06 00:55:51;;;;;;;;;86.00;70.67;;;;;;;;5033751;28;45611;-73
2022/03/06 00:58:17;;;;;;;;;80.67;67.33;;;;;;;;5032921;28;47240;-73
2022/03/06 01:00:43;;;;;;;;;82.33;64.33;;;;;;;;5033075;28;45573;-74
2022/03/06 01:03:09;;;;;;;;;84.33;66.67;;;;;;;;5034244;28;45601;-73
2022/03/06 01:05:35;;;;;;;;;76.00;56.67;;;;;;;;5033418;28;45279;-73
2022/03/06 01:08:00;;;;;;;;;83.33;72.67;;;;;;;;5033161;28;46081;-74
2022/03/06 01:10:25;;;;;;;;;83.33;64.67;;;;;;;;5033196;28;45539;-73
2022/03/06 01:12:51;;;;;;;;;78.33;58.67;;;;;;;;5033194;28;45333;-74
2022/03/06 01:15:16;;;;;;;;;80.67;69.67;;;;;;;;5033610;28;45436;-73
2022/03/06 01:17:41;;;;;;;;;81.00;65.67;;;;;;;;5033427;28;45358;-74
2022/03/06 01:20:07;;;;;;;;;79.33;61.67;;;;;;;;5026029;28;47273;-73
2022/03/06 01:22:32;;;;;;;;;83.67;68.00;;;;;;;;5024750;28;45433;-73
2022/03/06 01:24:57;;;;;;;;;82.67;66.00;;;;;;;;5033530;28;45469;-74
2022/03/06 01:27:22;;;;;;;;;76.33;60.00;;;;;;;;5032548;28;46073;-73
2022/03/06 01:29:47;;;;;;;;;78.00;62.00;;;;;;;;5033772;28;45354;-74
2022/03/06 01:32:13;;;;;;;;;79.33;65.00;;;;;;;;5032892;28;45461;-72
2022/03/06 01:34:38;;;;;;;;;75.33;58.67;;;;;;;;5033182;28;45566;-73
2022/03/06 01:37:03;;;;;;;;;77.33;60.00;;;;;;;;5033501;28;46010;-73
2022/03/06 01:39:28;;;;;;;;;76.00;57.67;;;;;;;;5033467;28;45406;-73
2022/03/06 01:41:54;;;;;;;;;79.33;59.00;;;;;;;;5034107;28;45346;-72
2022/03/06 01:44:19;;;;;;;;;74.67;58.00;;;;;;;;5033378;28;45442;-73
2022/03/06 01:46:47;;;;;;;;;77.00;57.67;;;;;;;;5033328;28;45747;-72
2022/03/06 01:49:12;;;;;;;;;78.00;59.67;;;;;;;;5033657;28;45476;-74
2022/03/06 01:51:38;;;;;;;;;77.00;60.33;;;;;;;;5017801;28;45503;-72
2022/03/06 01:54:03;;;;;;;;;79.00;60.00;;;;;;;;5033744;28;45465;-72
2022/03/06 01:56:28;;;;;;;;;78.00;61.00;;;;;;;;5033210;28;45989;-73
2022/03/06 01:58:54;;;;;;;;;70.00;55.00;;;;;;;;5028704;28;45486;-73
2022/03/06 02:01:20;;;;;;;;;78.00;60.00;;;;;;;;5026256;28;45729;-72
2022/03/06 02:03:45;;;;;;;;;77.00;59.00;;;;;;;;5036375;28;45274;-72
2022/03/06 02:06:10;;;;;;;;;75.00;58.67;;;;;;;;5036705;28;46307;-72
2022/03/06 02:08:36;;;;;;;;;77.67;58.67;;;;;;;;5024516;28;45462;-73
2022/03/06 02:11:01;;;;;;;;;81.33;59.00;;;;;;;;5031979;28;45359;-73
2022/03/06 02:13:26;;;;;;;;;81.00;63.67;;;;;;;;5036132;28;45711;-73
2022/03/06 02:15:52;;;;;;;;;76.67;58.00;;;;;;;;5036547;28;45288;-74
2022/03/06 02:18:19;;;;;;;;;81.00;61.67;;;;;;;;5036805;28;45304;-74
2022/03/06 02:20:45;;;;;;;;;80.67;63.67;;;;;;;;5037388;28;45354;-72
2022/03/06 02:23:10;;;;;;;;;75.67;56.00;;;;;;;;5028768;28;45518;-73
2022/03/06 02:25:36;;;;;;;;;76.67;58.00;;;;;;;;5025476;28;45449;-73
2022/03/06 02:28:04;;;;;;;;;77.00;58.67;;;;;;;;5023925;28;45554;-73
2022/03/06 02:30:34;;;;;;;;;78.33;57.33;;;;;;;;5036921;28;45427;-73
2022/03/06 02:33:02;;;;;;;;;79.33;62.33;;;;;;;;5036853;28;45532;-73
2022/03/06 02:35:28;;;;;;;;;75.00;56.67;;;;;;;;5036282;28;45312;-73
2022/03/06 02:37:53;;;;;;;;;77.33;60.67;;;;;;;;5030190;28;45268;-73
2022/03/06 02:40:20;;;;;;;;;80.67;62.67;;;;;;;;5025950;28;45462;-73
2022/03/06 02:42:46;;;;;;;;;80.00;61.33;;;;;;;;5036432;28;45393;-72
2022/03/06 02:45:14;;;;;;;;;72.33;57.33;;;;;;;;5036362;28;46082;-73
2022/03/06 02:47:40;;;;;;;;;75.67;56.67;;;;;;;;5035780;28;45372;-73
2022/03/06 02:50:07;;;;;;;;;74.33;57.00;;;;;;;;5035999;28;45418;-73
2022/03/06 02:52:33;;;;;;;;;78.00;60.33;;;;;;;;5017611;28;45996;-71
2022/03/06 02:54:58;;;;;;;;;77.33;59.67;;;;;;;;5036116;28;46999;-73
2022/03/06 02:57:23;;;;;;;;;72.33;56.00;;;;;;;;5035833;28;45513;-73
2022/03/06 02:59:49;;;;;;;;;77.00;58.00;;;;;;;;5036588;28;45468;-73
2022/03/06 03:02:14;;;;;;;;;74.67;58.33;;;;;;;;5035796;28;45473;-73
2022/03/06 03:04:39;;;;;;;;;74.00;56.33;;;;;;;;5035550;28;46127;-73
2022/03/06 03:07:06;;;;;;;;;75.33;57.67;;;;;;;;5035501;28;45335;-73
2022/03/06 03:09:33;;;;;;;;;74.00;54.33;;;;;;;;5035607;28;45399;-73
2022/03/06 03:11:58;;;;;;;;;84.33;67.00;;;;;;;;5036200;28;45408;-73
2022/03/06 03:14:23;;;;;;;;;78.33;61.00;;;;;;;;5035449;28;45300;-73
2022/03/06 03:16:49;;;;;;;;;77.67;58.33;;;;;;;;5030587;28;45436;-72
2022/03/06 03:19:14;;;;;;;;;71.33;57.33;;;;;;;;5024831;28;45693;-73
2022/03/06 03:21:40;;;;;;;;;79.33;61.00;;;;;;;;5035385;28;45420;-73
2022/03/06 03:24:05;;;;;;;;;77.33;52.67;;;;;;;;5031803;28;46597;-72
2022/03/06 03:26:31;;;;;;;;;78.67;58.00;;;;;;;;5035570;28;45512;-72
2022/03/06 03:28:56;;;;;;;;;75.33;57.00;;;;;;;;5035624;28;45486;-72
2022/03/06 03:31:21;;;;;;;;;73.00;59.00;;;;;;;;5035141;28;45536;-74
2022/03/06 03:33:46;;;;;;;;;75.33;57.00;;;;;;;;5035462;28;45522;-72
2022/03/06 03:36:11;;;;;;;;;77.67;56.67;;;;;;;;5035470;28;45343;-72
2022/03/06 03:38:38;;;;;;;;;74.33;54.67;;;;;;;;5035182;28;45453;-72
2022/03/06 03:41:03;;;;;;;;;88.33;73.00;;;;;;;;5035473;28;45350;-73
2022/03/06 03:43:29;;;;;;;;;71.67;55.33;;;;;;;;5034982;28;46807;-72
2022/03/06 03:45:54;;;;;;;;;68.00;54.67;;;;;;;;5035504;28;45394;-72
2022/03/06 03:48:20;;;;;;;;;75.33;58.00;;;;;;;;5035671;28;45402;-72
2022/03/06 03:50:45;;;;;;;;;73.00;57.67;;;;;;;;5035434;28;45311;-72
2022/03/06 03:53:10;;;;;;;;;75.33;58.67;;;;;;;;5035018;28;47119;-72
2022/03/06 03:55:35;;;;;;;;;79.33;60.00;;;;;;;;5031739;28;45300;-72
2022/03/06 03:58:00;;;;;;;;;76.33;59.00;;;;;;;;5022258;28;45373;-72
2022/03/06 04:00:26;;;;;;;;;75.67;58.33;;;;;;;;5035359;28;45351;-72
2022/03/06 04:02:51;;;;;;;;;78.00;59.33;;;;;;;;5035602;28;45679;-71
2022/03/06 04:05:16;;;;;;;;;75.33;59.67;;;;;;;;5034885;28;45395;-73
2022/03/06 04:07:41;;;;;;;;;73.33;58.33;;;;;;;;5035251;28;45494;-72
2022/03/06 04:10:07;;;;;;;;;79.00;60.00;;;;;;;;5035180;28;45460;-73
2022/03/06 04:12:32;;;;;;;;;78.00;61.33;;;;;;;;5018852;28;46192;-73
2022/03/06 04:14:57;;;;;;;;;71.00;57.00;;;;;;;;5035710;28;45233;-74
2022/03/06 04:17:22;;;;;;;;;64.33;52.33;;;;;;;;5034812;28;45260;-74
2022/03/06 04:19:48;;;;;;;;;72.33;58.00;;;;;;;;5029786;28;45309;-74
2022/03/06 04:22:13;;;;;;;;;74.00;58.33;;;;;;;;5023254;28;46374;-73
2022/03/06 04:24:38;;;;;;;;;81.67;60.67;;;;;;;;5035097;28;45207;-73
2022/03/06 04:27:03;;;;;;;;;76.00;61.00;;;;;;;;5035607;28;45362;-74
2022/03/06 04:29:30;;;;;;;;;77.33;60.67;;;;;;;;5035042;28;46020;-73
2022/03/06 04:31:55;;;;;;;;;78.00;59.00;;;;;;;;5034364;28;45428;-73
2022/03/06 04:34:20;;;;;;;;;80.00;58.33;;;;;;;;5032987;28;45569;-74
2022/03/06 04:36:46;;;;;;;;;80.33;62.33;;;;;;;;5020164;28;45406;-73
2022/03/06 04:39:11;;;;;;;;;76.00;57.67;;;;;;;;5035014;28;45374;-72
2022/03/06 04:41:36;;;;;;;;;82.00;63.00;;;;;;;;5034691;28;45365;-73
2022/03/06 04:44:01;;;;;;;;;77.00;61.00;;;;;;;;5034217;28;45481;-73
2022/03/06 04:46:26;;;;;;;;;82.33;60.00;;;;;;;;5034159;28;47794;-74
2022/03/06 04:48:52;;;;;;;;;82.00;62.33;;;;;;;;5034212;28;45368;-72
2022/03/06 04:51:17;;;;;;;;;75.00;56.00;;;;;;;;5034240;28;45636;-73
2022/03/06 04:53:42;;;;;;;;;80.67;59.67;;;;;;;;5034565;28;45529;-74
2022/03/06 04:56:08;;;;;;;;;81.33;62.33;;;;;;;;5034246;28;45537;-74
2022/03/06 04:58:33;;;;;;;;;77.00;59.33;;;;;;;;5033995;28;45337;-74
2022/03/06 05:01:00;;;;;;;;;77.67;55.67;;;;;;;;5034429;28;46080;-73
2022/03/06 05:03:25;;;;;;;;;81.33;61.33;;;;;;;;5034353;28;45500;-74
2022/03/06 05:05:50;;;;;;;;;79.00;59.33;;;;;;;;5035159;28;45320;-73
2022/03/06 05:08:16;;;;;;;;;76.00;59.33;;;;;;;;5034199;28;45422;-73
2022/03/06 05:10:41;;;;;;;;;80.00;58.33;;;;;;;;5033947;28;47231;-73
2022/03/06 05:13:07;;;;;;;;;76.00;60.67;;;;;;;;5038950;28;45334;-73
2022/03/06 05:15:32;;;;;;;;;79.33;60.33;;;;;;;;5028747;28;45511;-74
2022/03/06 05:17:57;;;;;;;;;74.00;54.33;;;;;;;;5042095;28;45210;-73
2022/03/06 05:20:23;;;;;;;;;78.33;60.33;;;;;;;;5026211;28;46148;-74
2022/03/06 05:22:48;;;;;;;;;75.33;59.33;;;;;;;;5028383;28;45397;-74
2022/03/06 05:25:14;;;;;;;;;74.00;57.33;;;;;;;;5034544;28;45579;-73
2022/03/06 05:27:40;;;;;;;;;75.67;58.00;;;;;;;;5034276;28;45382;-73
2022/03/06 05:30:07;;;;;;;;;72.33;55.67;;;;;;;;5030468;28;46312;-73
2022/03/06 05:32:32;;;;;;;;;80.67;60.67;;;;;;;;5033610;28;45344;-73
2022/03/06 05:34:57;;;;;;;;;77.33;59.00;;;;;;;;5036789;28;45353;-74
2022/03/06 05:37:23;;;;;;;;;78.00;58.00;;;;;;;;5036773;28;45374;-72
2022/03/06 05:39:48;;;;;;;;;72.67;57.00;;;;;;;;5036754;28;45572;-72
2022/03/06 05:42:14;;;;;;;;;79.33;59.67;;;;;;;;5037209;28;45441;-73
2022/03/06 05:44:39;;;;;;;;;80.33;59.00;;;;;;;;5037381;28;45352;-72
2022/03/06 05:47:05;;;;;;;;;82.33;59.67;;;;;;;;5036430;28;45536;-72
2022/03/06 05:49:30;;;;;;;;;75.67;58.33;;;;;;;;5036912;28;45584;-72
2022/03/06 05:51:55;;;;;;;;;73.00;56.67;;;;;;;;5036937;28;45486;-72
2022/03/06 05:54:20;;;;;;;;;79.33;59.67;;;;;;;;5021280;28;45285;-71
2022/03/06 05:56:46;;;;;;;;;66.67;53.67;;;;;;;;5037359;28;45578;-74
2022/03/06 05:59:11;;;;;;;;;79.67;60.00;;;;;;;;5036881;28;46234;-73
2022/03/06 06:01:38;;;;;;;;;79.33;61.00;;;;;;;;5036308;28;45357;-73
2022/03/06 06:04:03;;;;;;;;;78.00;60.00;;;;;;;;5036899;28;45497;-74
2022/03/06 06:06:28;;;;;;;;;73.00;58.33;;;;;;;;5037103;28;45240;-74
2022/03/06 06:08:54;;;;;;;;;79.67;60.00;;;;;;;;5036955;28;45438;-72
2022/03/06 06:11:20;;;;;;;;;77.00;59.67;;;;;;;;5036231;28;45260;-72
2022/03/06 06:13:45;;;;;;;;;77.67;59.00;;;;;;;;5036754;28;45548;-74
2022/03/06 06:16:11;;;;;;;;;77.00;60.33;;;;;;;;5036517;28;45564;-72
2022/03/06 06:18:36;;;;;;;;;78.00;58.67;;;;;;;;5036624;28;46070;-73
2022/03/06 06:21:02;;;;;;;;;85.00;63.00;;;;;;;;5036990;28;45433;-73
2022/03/06 06:23:27;;;;;;;;;80.33;59.67;;;;;;;;5018744;28;45917;-72
2022/03/06 06:25:52;;;;;;;;;78.00;60.33;;;;;;;;5036520;28;45430;-72
2022/03/06 06:28:17;;;;;;;;;79.00;61.00;;;;;;;;5036294;28;46173;-73
2022/03/06 06:30:43;;;;;;;;;76.67;60.00;;;;;;;;5036103;28;45482;-73
2022/03/06 06:33:09;;;;;;;;;80.33;60.00;;;;;;;;5021011;28;45390;-73
2022/03/06 06:35:34;;;;;;;;;76.00;59.00;;;;;;;;5036534;28;45670;-72
2022/03/06 06:38:00;;;;;;;;;77.33;59.33;;;;;;;;5036105;28;47201;-73
2022/03/06 06:40:25;;;;;;;;;80.67;61.00;;;;;;;;5035943;28;45390;-73
2022/03/06 06:42:50;;;;;;;;;82.33;63.00;;;;;;;;5036121;28;45357;-73
2022/03/06 06:45:16;;;;;;;;;77.67;59.67;;;;;;;;5035410;28;45534;-73
2022/03/06 06:47:41;;;;;;;;;82.33;61.00;;;;;;;;5036237;28;46299;-73
2022/03/06 06:50:06;;;;;;;;;84.33;62.33;;;;;;;;5035621;28;45457;-73
2022/03/06 06:52:32;;;;;;;;;83.33;64.67;;;;;;;;5035251;28;45210;-73
2022/03/06 06:54:57;;;;;;;;;86.00;66.33;;;;;;;;5035804;28;45595;-73
2022/03/06 06:57:22;;;;;;;;;79.33;60.33;;;;;;;;5035739;28;45478;-73
2022/03/06 06:59:47;;;;;;;;;80.67;62.00;;;;;;;;5036073;28;45326;-73
2022/03/06 07:02:12;;;;;;;;;84.00;60.67;;;;;;;;5035369;28;45427;-72
2022/03/06 07:04:38;;;;;;;;;84.00;65.33;;;;;;;;5034760;28;45503;-72
2022/03/06 07:07:03;;;;;;;;;82.33;62.00;;;;;;;;5034827;28;47150;-72
2022/03/06 07:09:28;;;;;;;;;82.67;61.67;;;;;;;;5018878;28;45467;-74
2022/03/06 07:11:53;;;;;;;;;76.00;60.67;;;;;;;;5022029;28;45398;-72
2022/03/06 07:14:19;;;;;;;;;83.67;63.33;;;;;;;;5033008;28;45297;-74
2022/03/06 07:16:45;;;;;;;;;73.67;59.33;;;;;;;;5035380;28;45356;-73
2022/03/06 07:19:10;;;;;;;;;75.00;60.33;;;;;;;;5035986;28;45419;-73
2022/03/06 07:21:36;;;;;;;;;82.33;60.67;;;;;;;;5036256;28;45785;-74
2022/03/06 07:24:01;;;;;;;;;84.67;62.00;;;;;;;;5021152;28;45379;-74
2022/03/06 07:26:26;;;;;;;;;83.67;64.33;;;;;;;;5034824;28;46082;-73
2022/03/06 07:28:52;;;;;;;;;77.00;60.33;;;;;;;;5035163;28;45514;-73
2022/03/06 07:31:17;;;;;;;;;80.00;62.67;;;;;;;;5035438;28;45371;-74
2022/03/06 07:33:42;;;;;;;;;80.33;60.33;;;;;;;;5035307;28;45313;-74
2022/03/06 07:36:07;;;;;;;;;80.00;58.67;;;;;;;;5035743;28;46172;-74
2022/03/06 07:38:32;;;;;;;;;76.67;59.33;;;;;;;;5034573;28;45388;-74
2022/03/06 07:40:58;;;;;;;;;72.00;56.33;;;;;;;;5034871;28;45568;-73
2022/03/06 07:43:23;;;;;;;;;75.00;58.33;;;;;;;;5034583;28;45392;-74
2022/03/06 07:45:48;;;;;;;;;85.33;65.67;;;;;;;;5034601;28;46929;-74
2022/03/06 07:48:13;;;;;;;;;81.33;63.00;;;;;;;;5035211;28;45399;-75
2022/03/06 07:50:38;;;;;;;;;80.67;61.67;;;;;;;;5023072;28;45432;-74
2022/03/06 07:53:04;;;;;;;;;79.00;60.67;;;;;;;;5030221;28;45370;-74
2022/03/06 07:55:29;;;;;;;;;83.00;61.00;;;;;;;;5034111;28;45377;-74
2022/03/06 07:57:54;;;;;;;;;79.33;60.33;;;;;;;;5033403;28;45359;-74
2022/03/06 08:00:19;;;;;;;;;78.33;60.00;;;;;;;;5034051;28;46715;-75
2022/03/06 08:02:44;;;;;;;;;76.33;59.67;;;;;;;;5034553;28;45734;-74
2022/03/06 08:05:10;;;;;;;;;72.00;56.33;;;;;;;;5034772;28;46379;-76
2022/03/06 08:07:35;;;;;;;;;78.00;57.67;;;;;;;;5034804;28;45340;-74
2022/03/06 08:10:01;;;;;;;;;75.67;58.67;;;;;;;;5035352;28;45539;-73
2022/03/06 08:12:27;;;;;;;;;78.33;59.67;;;;;;;;5018747;28;45324;-75
2022/03/06 08:14:53;;;;;;;;;77.67;60.67;;;;;;;;5035187;28;46083;-74
2022/03/06 08:17:18;;;;;;;;;75.33;58.00;;;;;;;;5034804;28;45415;-75
2022/03/06 08:19:44;;;;;;;;;80.00;60.00;;;;;;;;5034422;28;45415;-75
2022/03/06 08:22:09;;;;;;;;;75.33;57.67;;;;;;;;5034080;28;45363;-74
2022/03/06 08:24:35;;;;;;;;;75.00;59.67;;;;;;;;5034358;28;46245;-74
2022/03/06 08:27:00;;;;;;;;;74.33;57.00;;;;;;;;5034600;28;45331;-75
2022/03/06 08:29:25;;;;;;;;;73.33;58.33;;;;;;;;5024112;28;45487;-76
2022/03/06 08:31:50;;;;;;;;;69.67;54.67;;;;;;;;5027155;28;45521;-74
2022/03/06 08:34:15;;;;;;;;;74.00;57.33;;;;;;;;5034625;28;47505;-75
2022/03/06 08:36:41;;;;;;;;;74.67;57.00;;;;;;;;5034689;28;45355;-75
2022/03/06 08:39:06;;;;;;;;;69.00;54.33;;;;;;;;5035218;28;45428;-75
2022/03/06 08:41:31;;;;;;;;;65.33;51.33;;;;;;;;5033630;28;45463;-76
2022/03/06 08:43:57;;;;;;;;;77.00;58.33;;;;;;;;5034209;28;46186;-75
2022/03/06 08:46:22;;;;;;;;;72.67;54.33;;;;;;;;5034399;28;45465;-74
2022/03/06 08:48:47;;;;;;;;;67.67;51.00;;;;;;;;5034339;28;45447;-75
2022/03/06 08:51:13;;;;;;;;;68.33;53.67;;;;;;;;5018668;28;45445;-74
2022/03/06 08:53:38;;;;;;;;;73.33;55.67;;;;;;;;5038260;28;46184;-74
2022/03/06 08:56:04;;;;;;;;;67.67;55.00;;;;;;;;5046840;28;45334;-75
2022/03/06 08:58:29;;;;;;;;;69.67;55.00;;;;;;;;5043709;28;45036;-75
2022/03/06 09:00:54;;;;;;;;;70.00;54.00;;;;;;;;5035513;28;45217;-74
2022/03/06 09:03:19;;;;;;;;;69.33;53.00;;;;;;;;5034943;28;46234;-74
2022/03/06 09:05:44;;;;;;;;;70.67;54.00;;;;;;;;5035102;28;45400;-75
2022/03/06 09:08:10;;;;;;;;;66.00;52.50;;;;;;;;5025070;28;45286;-74
2022/03/06 09:10:36;;;;;;;;;66.50;50.75;;;;;;;;5024641;28;45444;-75
2022/03/06 09:13:01;;;;;;;;;61.75;48.25;;;;;;;;5032819;28;47020;-75
2022/03/06 09:15:27;;;;;;;;;65.75;52.00;;;;;;;;5033221;28;45450;-75
2022/03/06 09:17:52;;;;;;;;;63.50;50.75;;;;;;;;5034034;28;45389;-75
2022/03/06 09:20:18;;;;;;;;;67.00;51.25;;;;;;;;5032948;28;45361;-72
2022/03/06 09:22:43;;;;;;;;;60.50;47.50;;;;;;;;5032432;28;46355;-74
2022/03/06 09:25:08;;;;;;;;;59.75;46.75;;;;;;;;5032538;28;45283;-74
2022/03/06 09:27:35;;;;;;;;;59.00;48.75;;;;;;;;5032712;28;45425;-75
2022/03/06 09:30:00;;;;;;;;;74.00;58.00;;;;;;;;5033331;28;45532;-76
2022/03/06 09:32:25;;;;;;;;;53.75;43.75;;;;;;;;5032992;28;46905;-74
2022/03/06 09:34:50;;;;;;;;;70.00;54.00;;;;;;;;5033057;28;45461;-75
2022/03/06 09:37:16;;;;;;;;;57.50;45.50;;;;;;;;5033114;28;45539;-75
2022/03/06 09:39:41;;;;;;;;;60.25;47.25;;;;;;;;5032855;28;45356;-75
2022/03/06 09:42:06;;;;;;;;;56.00;46.25;;;;;;;;5033148;28;47243;-75
2022/03/06 09:44:32;;;;;;;;;58.00;47.25;;;;;;;;5032390;28;45446;-76
2022/03/06 09:46:58;;;;;;;;;56.25;46.00;;;;;;;;5026346;28;45485;-76
2022/03/06 09:49:23;;;;;;;;;55.50;45.50;;;;;;;;5021398;28;45256;-75
2022/03/06 09:51:49;;;;;;;;;58.75;46.75;;;;;;;;5017523;28;45603;-75
2022/03/06 09:54:16;;;;;;;;;60.00;47.50;;;;;;;;5032276;28;45409;-76
2022/03/06 09:56:41;;;;;;;;;58.00;44.50;;;;;;;;5032981;28;45300;-75
2022/03/06 09:59:06;;;;;;;;;54.75;44.25;;;;;;;;5032315;28;45533;-76
2022/03/06 10:01:32;;;;;;;;;57.25;45.75;;;;;;;;5013403;28;45345;-74
2022/03/06 10:03:57;;;;;;;;;56.25;43.00;;;;;;;;5032042;28;45368;-75
2022/03/06 10:06:23;;;;;;;;;52.50;42.50;;;;;;;;5032119;28;45230;-75
2022/03/06 10:09:01;;;;;;;;;59.00;47.75;;;;;;;;5032490;28;45284;-72
2022/03/06 10:11:27;;;;;;;;;53.50;41.50;;;;;;;;5031901;28;46595;-73
2022/03/06 10:13:52;;;;;;;;;49.50;41.25;;;;;;;;5031371;28;45448;-71
2022/03/06 10:16:19;;;;;;;;;52.00;41.50;;;;;;;;5031863;28;45389;-72
2022/03/06 10:18:49;;;;;;;;;55.25;42.75;;;;;;;;5032323;28;45465;-72
2022/03/06 10:21:18;;;;;;;;;52.00;42.50;;;;;;;;5033289;28;47116;-72
2022/03/06 10:23:44;;;;;;;;;45.25;37.25;;;;;;;;5034054;28;45959;-73
2022/03/06 10:26:10;;;;;;;;;45.00;38.75;;;;;;;;5027024;28;45572;-76
2022/03/06 10:28:44;;;;;;;;;44.50;36.00;;;;;;;;5030672;28;45544;-75
2022/03/06 10:31:09;;;;;;;;;47.50;37.50;;;;;;;;5016800;28;46476;-74
2022/03/06 10:33:35;;;;;;;;;43.25;37.25;;;;;;;;5035833;28;45406;-74
2022/03/06 10:36:02;;;;;;;;;41.75;36.00;;;;;;;;5035670;28;45326;-73
2022/03/06 10:38:33;;;;;;;;;44.25;35.00;;;;;;;;5036229;28;45566;-74
2022/03/06 10:41:02;;;;;;;;;53.00;41.75;;;;;;;;5035756;28;46129;-75
2022/03/06 10:43:29;;;;;;;;;41.25;35.75;;;;;;;;5036251;28;45242;-75
2022/03/06 10:46:08;;;;;;;;;37.75;32.75;;;;;;;;5034670;28;45367;-81
2022/03/06 10:48:34;;;;;;;;;37.75;33.00;;;;;;;;5034582;28;45629;-74
2022/03/06 10:51:00;;;;;;;;;39.25;30.25;;;;;;;;5016535;28;48216;-75
2022/03/06 10:53:25;;;;;;;;;29.00;28.25;;;;;;;;5034583;28;45541;-76
2022/03/06 10:55:51;;;;;;;;;25.75;25.50;;;;;;;;5035177;28;45392;-76
2022/03/06 10:58:17;;;;;;;;;23.50;23.50;;;;;;;;5037814;28;45349;-73
2022/03/06 11:00:43;;;;;;;;;27.00;27.00;;;;;;;;5034226;28;46306;-77
2022/03/06 11:03:11;;;;;;;;;37.00;30.25;;;;;;;;5035622;28;45336;-75
2022/03/06 11:05:39;;;;;;;;;29.25;28.25;;;;;;;;5034143;28;45538;-77
2022/03/06 11:08:04;;;;;;;;;25.50;21.50;;;;;;;;5034642;28;45433;-77
2022/03/06 11:10:29;;;;;;;;;25.50;25.00;;;;;;;;5034363;28;46310;-78
2022/03/06 11:12:55;;;;;;;;;30.25;28.75;;;;;;;;5034894;28;45421;-74
2022/03/06 11:15:20;;;;;;;;;23.50;23.00;;;;;;;;5034394;28;45362;-74
2022/03/06 11:17:46;;;;;;;;;26.00;23.50;;;;;;;;5033994;28;45367;-78
2022/03/06 11:20:11;;;;;;;;;27.00;24.00;;;;;;;;5032626;28;46166;-77
2022/03/06 11:22:36;;;;;;;;;21.00;19.25;;;;;;;;5033059;28;45423;-77
2022/03/06 11:25:07;;;;;;;;;30.00;25.00;;;;;;;;5034396;28;45318;-76
2022/03/06 11:27:51;;;;;;;;;28.50;23.50;;;;;;;;5015482;28;45361;-77
2022/03/06 11:30:18;;;;;;;;;28.75;23.25;;;;;;;;5031284;28;46454;-77
2022/03/06 11:32:46;;;;;;;;;27.00;24.00;;;;;;;;5030716;28;45423;-78
2022/03/06 11:35:15;;;;;;;;;24.00;22.00;;;;;;;;5026567;28;45484;-75
2022/03/06 11:37:59;;;;;;;;;22.50;20.75;;;;;;;;5027581;28;45375;-77
2022/03/06 11:40:40;;;;;;;;;27.00;24.75;;;;;;;;5034990;28;45646;-77
2022/03/06 11:43:07;;;;;;;;;26.25;24.25;;;;;;;;5034242;28;45483;-76
2022/03/06 11:45:49;;;;;;;;;32.50;27.75;;;;;;;;5033780;28;45514;-76
2022/03/06 11:48:43;;;;;;;;;25.50;25.50;;;;;;;;5030241;28;45476;-75
2022/03/06 11:51:18;;;;;;;;;32.75;30.75;;;;;;;;5028873;28;46412;-76
2022/03/06 11:54:00;;;;;;;;;27.75;23.75;;;;;;;;5019927;28;45379;-77
2022/03/06 11:56:35;;;;;;;;;30.25;27.50;;;;;;;;5032265;28;45410;-77
2022/03/06 11:59:10;;;;;;;;;23.25;21.50;;;;;;;;5033546;28;45584;-77
2022/03/06 12:01:43;;;;;;;;;24.50;24.00;;;;;;;;5033546;28;46168;-76
2022/03/06 12:04:08;;;;;;;;;21.25;17.50;;;;;;;;5033047;28;45435;-77
2022/03/06 12:06:41;;;;;;;;;25.00;22.25;;;;;;;;5015212;28;45531;-75
2022/03/06 12:09:10;;;;;;;;;28.75;21.50;;;;;;;;5034568;28;45510;-75
2022/03/06 12:11:36;;;;;;;;;27.50;26.00;;;;;;;;5033745;28;46435;-78
2022/03/06 12:14:17;;;;;;;;;23.75;23.25;;;;;;;;5033295;28;45517;-77
2022/03/06 12:17:00;;;;;;;;;24.75;23.75;;;;;;;;5033400;28;45410;-75
2022/03/06 12:19:26;;;;;;;;;23.75;22.75;;;;;;;;5032637;28;45414;-76
2022/03/06 12:21:51;;;;;;;;;24.25;22.00;;;;;;;;5033133;28;46233;-75
2022/03/06 12:24:27;;;;;;;;;25.75;20.25;;;;;;;;5017453;28;45405;-75
2022/03/06 12:26:53;;;;;;;;;22.50;17.75;;;;;;;;5020308;28;45384;-75
2022/03/06 12:29:37;;;;;;;;;26.50;26.25;;;;;;;;5030341;28;45415;-75
2022/03/06 12:32:40;;;;;;;;;21.75;19.75;;;;;;;;5032120;28;45400;-76
2022/03/06 12:35:07;;;;;;;;;22.75;22.25;;;;;;;;4970161;28;45432;-77
2022/03/06 12:37:40;;;;;;;;;24.50;21.25;;;;;;;;4970286;28;45531;-78
2022/03/06 12:40:09;;;;;;;;;26.50;21.00;;;;;;;;4971094;28;45561;-77
2022/03/06 12:42:36;;;;;;;;;25.50;22.75;;;;;;;;4970175;28;46025;-77
2022/03/06 12:45:04;;;;;;;;;23.50;21.25;;;;;;;;4970577;28;45463;-77
2022/03/06 12:47:29;;;;;;;;;21.50;21.50;;;;;;;;4970293;28;45390;-77
2022/03/06 12:49:56;;;;;;;;;25.75;22.50;;;;;;;;4970918;28;45408;-77
2022/03/06 12:52:22;;;;;;;;;22.50;21.25;;;;;;;;4971067;28;46949;-77
2022/03/06 12:54:48;;;;;;;;;22.00;20.75;;;;;;;;4971137;28;45477;-77
2022/03/06 12:57:13;;;;;;;;;26.00;23.00;;;;;;;;4971974;28;45424;-77
2022/03/06 12:59:41;;;;;;;;;23.00;22.75;;;;;;;;4971018;28;45553;-77
2022/03/06 13:02:06;;;;;;;;;25.75;22.75;;;;;;;;4970188;28;46189;-76
2022/03/06 13:04:32;;;;;;;;;19.50;18.75;;;;;;;;4970853;28;45405;-76
2022/03/06 13:06:57;;;;;;;;;26.75;20.75;;;;;;;;5030328;28;45465;-76
2022/03/06 13:09:34;;;;;;;;;28.00;27.00;;;;;;;;5033041;28;45354;-77
2022/03/06 13:12:00;;;;;;;;;27.75;20.25;;;;;;;;5018806;28;46079;-77
2022/03/06 13:14:31;;;;;;;;;23.00;21.50;;;;;;;;5030775;28;45610;-75
2022/03/06 13:17:01;;;;;;;;;30.50;27.00;;;;;;;;5032217;28;45304;-77
2022/03/06 13:19:34;;;;;;;;;27.00;23.25;;;;;;;;5031946;28;45443;-77
2022/03/06 13:22:00;;;;;;;;;28.25;25.25;;;;;;;;5032390;28;47148;-75
2022/03/06 13:24:25;;;;;;;;;27.00;23.50;;;;;;;;5032668;28;45504;-76
2022/03/06 13:26:54;;;;;;;;;28.00;24.75;;;;;;;;5033165;28;45533;-77
2022/03/06 13:29:23;;;;;;;;;25.75;23.25;;;;;;;;5032339;28;45484;-77
2022/03/06 13:31:49;;;;;;;;;22.00;22.00;;;;;;;;5031319;28;45422;-77
2022/03/06 13:34:15;;;;;;;;;24.00;21.50;;;;;;;;5031455;28;45476;-77
2022/03/06 13:36:42;;;;;;;;;23.75;23.00;;;;;;;;5013877;28;45494;-76
2022/03/06 13:39:08;;;;;;;;;21.00;21.00;;;;;;;;5028791;28;45308;-85
2022/03/06 13:41:34;;;;;;;;;28.75;28.00;;;;;;;;5032365;28;45781;-78
2022/03/06 13:44:00;;;;;;;;;22.50;21.00;;;;;;;;5032466;28;45491;-77
2022/03/06 13:46:26;;;;;;;;;20.25;17.25;;;;;;;;5033010;28;45498;-78
2022/03/06 13:49:05;;;;;;;;;31.25;28.75;;;;;;;;5033323;28;45432;-77
2022/03/06 13:51:32;;;;;;;;;21.75;19.50;;;;;;;;5027499;28;46021;-76
2022/03/06 13:54:00;;;;;;;;;22.50;20.50;;;;;;;;5031293;28;45416;-76
2022/03/06 13:56:29;;;;;;;;;29.25;25.50;;;;;;;;5036253;28;45613;-77
2022/03/06 13:58:55;;;;;;;;;22.25;19.00;;;;;;;;5035873;28;45513;-75
2022/03/06 14:01:20;;;;;;;;;22.75;22.50;;;;;;;;5035518;28;46139;-78
2022/03/06 14:03:46;;;;;;;;;29.50;22.75;;;;;;;;5036466;28;45385;-77
2022/03/06 14:06:12;;;;;;;;;21.25;20.00;;;;;;;;5036553;28;45482;-77
2022/03/06 14:08:39;;;;;;;;;29.50;24.75;;;;;;;;5024575;28;45410;-77
2022/03/06 14:11:05;;;;;;;;;23.25;21.50;;;;;;;;5031896;28;46398;-77